createdAt,value
2023-05-22T00:00:35.756Z,100158.94
2023-05-22T00:03:39.163Z,100159.75
2023-05-22T00:06:42.894Z,100152.78
2023-05-22T00:09:46.600Z,100155.72
2023-05-22T00:12:49.137Z,100154.94
2023-05-22T00:15:52.099Z,100160.75
2023-05-22T00:18:55.683Z,100153.38
2023-05-22T00:21:58.567Z,100148.72
2023-05-22T00:25:05.021Z,100151.38
2023-05-22T00:28:07.806Z,100149.56
2023-05-22T00:31:10.328Z,100147.56
2023-05-22T00:34:13.119Z,100156.72
2023-05-22T00:37:15.709Z,100153.31
2023-05-22T00:40:18.712Z,100150.88
2023-05-22T00:43:21.581Z,100153.06
2023-05-22T00:46:24.551Z,100144.56
2023-05-22T00:49:27.384Z,100157.53
2023-05-22T00:52:30.524Z,100147.78
2023-05-22T00:55:33.085Z,100157.09
2023-05-22T00:58:35.830Z,100154.00
2023-05-22T01:01:42.234Z,100159.91
2023-05-22T01:04:48.542Z,100162.66
2023-05-22T01:07:51.699Z,100157.88
2023-05-22T01:11:02.807Z,100157.88
2023-05-22T01:14:10.927Z,100154.31
2023-05-22T01:17:35.640Z,100150.78
2023-05-22T01:20:44.161Z,100153.69
2023-05-22T01:24:11.681Z,100155.63
2023-05-22T01:27:20.241Z,100146.75
2023-05-22T01:30:54.052Z,100151.50
2023-05-22T01:33:58.602Z,100151.69
2023-05-22T01:37:02.134Z,100153.56
2023-05-22T01:40:06.446Z,100154.59
2023-05-22T01:43:09.380Z,100154.78
2023-05-22T01:46:12.012Z,100156.53
2023-05-22T01:49:15.452Z,100151.34
2023-05-22T01:52:38.682Z,100149.53
2023-05-22T01:56:00.988Z,100154.16
2023-05-22T01:59:41.642Z,100156.06
2023-05-22T02:02:55.781Z,100147.00
2023-05-22T02:06:00.496Z,100141.28
2023-05-22T02:09:03.432Z,100153.78
2023-05-22T02:12:07.131Z,100153.78
2023-05-22T02:15:09.909Z,100152.78
2023-05-22T02:18:16.422Z,100163.91
2023-05-22T02:21:19.086Z,100167.47
2023-05-22T02:24:23.600Z,100159.19
2023-05-22T02:27:26.826Z,100153.91
2023-05-22T02:30:30.416Z,100160.31
2023-05-22T02:33:33.335Z,100165.81
2023-05-22T02:36:37.333Z,100163.25
2023-05-22T02:39:40.025Z,100148.69
2023-05-22T02:42:42.907Z,100151.53
2023-05-22T02:45:45.915Z,100154.50
2023-05-22T02:48:48.672Z,100157.22
2023-05-22T02:51:51.238Z,100165.34
2023-05-22T02:54:54.101Z,100157.41
2023-05-22T02:57:56.834Z,100143.97
2023-05-22T03:01:00.888Z,100156.53
2023-05-22T03:04:03.449Z,100152.87
2023-05-22T03:07:07.299Z,100153.97
2023-05-22T03:10:10.042Z,100167.59
2023-05-22T03:13:13.032Z,100156.84
2023-05-22T03:16:15.654Z,100159.50
2023-05-22T03:19:19.685Z,100158.63
2023-05-22T03:22:23.164Z,100160.13
2023-05-22T03:25:26.120Z,100151.94
2023-05-22T03:28:28.573Z,100163.63
2023-05-22T03:31:33.315Z,100158.34
2023-05-22T03:34:36.990Z,100160.25
2023-05-22T03:37:40.129Z,100160.34
2023-05-22T03:40:42.733Z,100152.09
2023-05-22T03:43:46.345Z,100165.53
2023-05-22T03:46:48.955Z,100158.16
2023-05-22T03:49:51.860Z,100156.34
2023-05-22T03:52:54.471Z,100150.81
2023-05-22T03:55:59.731Z,100150.50
2023-05-22T03:59:02.241Z,100151.91
2023-05-22T04:02:05.441Z,100158.06
2023-05-22T04:05:09.440Z,100154.31
2023-05-22T04:08:12.040Z,100152.31
2023-05-22T04:11:15.998Z,100160.88
2023-05-22T04:14:18.642Z,100162.50
2023-05-22T04:17:22.146Z,100161.31
2023-05-22T04:20:24.801Z,100153.88
2023-05-22T04:23:27.613Z,100158.41
2023-05-22T04:26:32.048Z,100161.22
2023-05-22T04:29:36.546Z,100158.91
2023-05-22T04:32:39.115Z,100155.37
2023-05-22T04:35:42.392Z,100149.63
2023-05-22T04:38:44.918Z,100155.00
2023-05-22T04:41:47.668Z,100153.97
2023-05-22T04:44:53.102Z,100149.59
2023-05-22T04:47:56.376Z,100153.47
2023-05-22T04:50:59.000Z,100147.78
2023-05-22T04:54:01.827Z,100150.44
2023-05-22T04:57:04.997Z,100152.16
2023-05-22T05:00:08.396Z,100157.97
2023-05-22T05:03:11.810Z,100153.03
2023-05-22T05:06:14.790Z,100144.47
2023-05-22T05:09:17.589Z,100153.25
2023-05-22T05:12:20.408Z,100157.25
2023-05-22T05:15:23.815Z,100144.81
2023-05-22T05:18:28.141Z,100149.16
2023-05-22T05:21:31.460Z,100147.53
2023-05-22T05:24:35.403Z,100147.59
2023-05-22T05:27:39.088Z,100145.84
2023-05-22T05:30:42.226Z,100145.28
2023-05-22T05:33:45.197Z,100141.38
2023-05-22T05:36:47.990Z,100151.84
2023-05-22T05:39:51.029Z,100156.09
2023-05-22T05:42:53.780Z,100151.22
2023-05-22T05:45:58.333Z,100157.94
2023-05-22T05:49:06.492Z,100150.13
2023-05-22T05:52:09.072Z,100155.81
2023-05-22T05:55:12.150Z,100157.97
2023-05-22T05:58:15.023Z,100159.75
2023-05-22T06:01:20.317Z,100160.75
2023-05-22T06:04:23.915Z,100167.44
2023-05-22T06:07:28.735Z,100159.41
2023-05-22T06:10:31.851Z,100152.78
2023-05-22T06:13:34.641Z,100152.47
2023-05-22T06:16:37.583Z,100159.94
2023-05-22T06:19:41.165Z,100147.25
2023-05-22T06:22:44.029Z,100149.44
2023-05-22T06:25:46.649Z,100154.91
2023-05-22T06:28:50.652Z,100156.75
2023-05-22T06:31:54.164Z,100154.72
2023-05-22T06:34:57.583Z,100147.75
2023-05-22T06:38:00.764Z,100140.19
2023-05-22T06:41:04.357Z,100149.63
2023-05-22T06:44:06.865Z,100145.91
2023-05-22T06:47:13.080Z,100146.53
2023-05-22T06:50:17.077Z,100160.09
2023-05-22T06:53:19.846Z,100150.16
2023-05-22T06:56:22.909Z,100155.87
2023-05-22T06:59:26.889Z,100153.63
2023-05-22T07:02:31.821Z,100148.59
2023-05-22T07:05:36.939Z,100148.94
2023-05-22T07:08:40.311Z,100146.13
2023-05-22T07:11:44.003Z,100136.28
2023-05-22T07:14:47.456Z,100148.84
2023-05-22T07:17:50.520Z,100151.38
2023-05-22T07:20:53.627Z,100149.28
2023-05-22T07:23:58.050Z,100144.16
2023-05-22T07:27:01.283Z,100144.72
2023-05-22T07:30:04.503Z,100143.00
2023-05-22T07:33:07.593Z,100145.97
2023-05-22T07:36:10.710Z,100142.22
2023-05-22T07:39:13.952Z,100138.13
2023-05-22T07:42:16.760Z,100132.28
2023-05-22T07:45:20.485Z,100138.00
2023-05-22T07:48:23.813Z,100137.81
2023-05-22T07:51:26.528Z,100138.91
2023-05-22T07:54:29.725Z,100137.12
2023-05-22T07:57:36.724Z,100141.91
2023-05-22T08:00:42.589Z,100139.84
2023-05-22T08:03:45.454Z,100133.28
2023-05-22T08:06:48.228Z,100140.34
2023-05-22T08:09:51.238Z,100138.06
2023-05-22T08:12:53.788Z,100140.12
2023-05-22T08:16:00.244Z,100140.72
2023-05-22T08:19:03.984Z,100133.84
2023-05-22T08:22:06.800Z,100139.84
2023-05-22T08:25:09.714Z,100130.44
2023-05-22T08:28:12.459Z,100125.41
2023-05-22T08:31:15.063Z,100119.69
2023-05-22T08:34:18.029Z,100138.63
2023-05-22T08:37:21.351Z,100130.06
2023-05-22T08:40:24.429Z,100127.44
2023-05-22T08:43:28.537Z,100128.50
2023-05-22T08:46:32.454Z,100134.56
2023-05-22T08:49:35.639Z,100130.00
2023-05-22T08:52:51.662Z,100124.72
2023-05-22T08:55:54.633Z,100121.31
2023-05-22T08:58:57.715Z,100121.69
2023-05-22T09:02:00.234Z,100120.09
2023-05-22T09:05:05.378Z,100111.34
2023-05-22T09:08:19.248Z,100111.31
2023-05-22T09:11:23.113Z,100109.38
2023-05-22T09:14:25.806Z,100107.66
2023-05-22T09:17:28.699Z,100101.53
2023-05-22T09:20:40.798Z,100106.88
2023-05-22T09:23:43.813Z,100103.75
2023-05-22T09:26:46.403Z,100097.44
2023-05-22T09:29:55.438Z,100103.81
2023-05-22T09:32:58.656Z,100106.75
2023-05-22T09:36:01.627Z,100101.69
2023-05-22T09:39:04.736Z,100103.31
2023-05-22T09:42:09.804Z,100096.94
2023-05-22T09:45:12.987Z,100100.09
2023-05-22T09:48:17.213Z,100089.25
2023-05-22T09:51:22.950Z,100080.78
2023-05-22T09:54:26.407Z,100086.97
2023-05-22T09:57:33.408Z,100076.78
2023-05-22T10:00:36.853Z,100081.84
2023-05-22T10:03:41.051Z,100085.03
2023-05-22T10:06:46.071Z,100082.75
2023-05-22T10:09:57.219Z,100082.94
2023-05-22T10:13:09.139Z,100082.62
2023-05-22T10:16:15.268Z,100083.56
2023-05-22T10:19:18.015Z,100084.19
2023-05-22T10:22:22.705Z,100071.44
2023-05-22T10:25:26.108Z,100065.88
2023-05-22T10:28:36.022Z,100069.44
2023-05-22T10:31:43.264Z,100060.09
2023-05-22T10:35:18.840Z,100055.84
2023-05-22T10:38:47.110Z,100041.63
2023-05-22T10:41:50.015Z,100052.16
2023-05-22T10:44:53.273Z,100044.28
2023-05-22T10:48:04.403Z,100047.37
2023-05-22T10:51:09.818Z,100046.19
2023-05-22T10:54:12.661Z,100044.25
2023-05-22T10:57:17.301Z,100039.31
2023-05-22T11:00:21.207Z,100040.75
2023-05-22T11:03:24.231Z,100052.12
2023-05-22T11:07:05.468Z,100035.81
2023-05-22T11:10:08.186Z,100033.28
2023-05-22T11:13:13.716Z,100025.34
2023-05-22T11:16:16.209Z,100021.16
2023-05-22T11:19:23.882Z,100021.03
2023-05-22T11:22:32.005Z,100016.47
2023-05-22T11:25:36.619Z,100019.78
2023-05-22T11:28:39.461Z,100013.25
2023-05-22T11:31:42.584Z,100019.41
2023-05-22T11:34:45.382Z,100017.56
2023-05-22T11:37:49.333Z,100013.34
2023-05-22T11:40:52.222Z,100022.06
2023-05-22T11:43:55.043Z,100010.06
2023-05-22T11:46:57.535Z,99997.88
2023-05-22T11:50:01.629Z,100004.62
2023-05-22T11:53:04.252Z,100002.87
2023-05-22T11:56:07.338Z,99996.03
2023-05-22T11:59:09.839Z,99989.12
2023-05-22T12:02:13.652Z,99990.16
2023-05-22T12:05:16.814Z,99984.72
2023-05-22T12:08:19.847Z,99979.50
2023-05-22T12:11:23.464Z,99962.06
2023-05-22T12:14:27.295Z,99964.47
2023-05-22T12:17:30.112Z,99965.00
2023-05-22T12:20:32.653Z,99963.72
2023-05-22T12:23:35.493Z,99961.53
2023-05-22T12:26:38.173Z,99961.88
2023-05-22T12:29:42.116Z,99953.50
2023-05-22T12:32:48.967Z,99949.97
2023-05-22T12:35:54.675Z,99955.00
2023-05-22T12:38:57.892Z,99952.34
2023-05-22T12:42:00.690Z,99948.22
2023-05-22T12:45:03.344Z,99952.09
2023-05-22T12:48:06.214Z,99946.22
2023-05-22T12:51:09.637Z,99945.84
2023-05-22T12:54:12.415Z,99934.56
2023-05-22T12:57:16.805Z,99945.34
2023-05-22T13:00:19.909Z,99935.34
2023-05-22T13:03:22.406Z,99936.62
2023-05-22T13:06:25.216Z,99932.06
2023-05-22T13:09:27.925Z,99935.62
2023-05-22T13:12:32.307Z,99937.91
2023-05-22T13:15:36.161Z,99943.69
2023-05-22T13:18:38.868Z,99937.91
2023-05-22T13:21:42.840Z,99943.47
2023-05-22T13:24:45.990Z,99946.75
2023-05-22T13:27:49.826Z,99946.59
2023-05-22T13:30:52.632Z,99937.22
2023-05-22T13:33:55.204Z,99939.37
2023-05-22T13:36:57.994Z,99936.34
2023-05-22T13:40:00.599Z,99929.62
2023-05-22T13:43:03.399Z,99931.16
2023-05-22T13:46:06.171Z,99930.31
2023-05-22T13:49:08.914Z,99929.81
2023-05-22T13:52:11.362Z,99927.16
2023-05-22T13:55:14.206Z,99930.66
2023-05-22T13:58:17.228Z,99921.28
2023-05-22T14:01:20.000Z,99917.03
2023-05-22T14:04:22.882Z,99915.34
2023-05-22T14:07:25.485Z,99917.87
2023-05-22T14:10:28.241Z,99908.31
2023-05-22T14:13:30.810Z,99898.78
2023-05-22T14:16:33.697Z,99903.38
2023-05-22T14:19:38.407Z,99894.22
2023-05-22T14:22:55.914Z,99883.66
2023-05-22T14:25:59.437Z,99870.28
2023-05-22T14:29:02.292Z,99878.69
2023-05-22T14:32:05.289Z,99865.44
2023-05-22T14:35:08.457Z,99874.31
2023-05-22T14:38:10.943Z,99879.53
2023-05-22T14:41:13.722Z,99872.03
2023-05-22T14:44:16.479Z,99877.97
2023-05-22T14:47:19.289Z,99874.16
2023-05-22T14:50:21.936Z,99879.19
2023-05-22T14:53:24.941Z,99869.69
2023-05-22T14:56:28.332Z,99878.22
2023-05-22T14:59:31.841Z,99876.59
2023-05-22T15:02:34.387Z,99871.31
2023-05-22T15:05:37.549Z,99876.59
2023-05-22T15:08:40.292Z,99868.47
2023-05-22T15:11:45.810Z,99870.06
2023-05-22T15:14:48.541Z,99865.75
2023-05-22T15:17:51.363Z,99858.91
2023-05-22T15:20:53.978Z,99864.25
2023-05-22T15:23:57.240Z,99857.13
2023-05-22T15:26:59.732Z,99857.84
2023-05-22T15:30:03.455Z,99850.69
2023-05-22T15:33:06.030Z,99847.59
2023-05-22T15:36:08.929Z,99848.78
2023-05-22T15:39:11.474Z,99846.78
2023-05-22T15:42:14.223Z,99839.53
2023-05-22T15:45:16.721Z,99845.81
2023-05-22T15:48:19.586Z,99842.03
2023-05-22T15:51:22.047Z,99839.91
2023-05-22T15:54:24.865Z,99830.88
2023-05-22T15:57:28.801Z,99823.72
2023-05-22T16:00:32.267Z,99827.34
2023-05-22T16:03:35.045Z,99824.47
2023-05-22T16:06:37.575Z,99823.22
2023-05-22T16:09:41.842Z,99819.94
2023-05-22T16:12:44.337Z,99829.50
2023-05-22T16:15:47.124Z,99828.25
2023-05-22T16:18:49.677Z,99834.13
2023-05-22T16:21:52.524Z,99836.19
2023-05-22T16:24:54.997Z,99838.06
2023-05-22T16:27:57.757Z,99832.69
2023-05-22T16:31:00.446Z,99832.19
2023-05-22T16:34:03.680Z,99839.84
2023-05-22T16:37:06.184Z,99844.97
2023-05-22T16:40:09.465Z,99844.97
2023-05-22T16:43:13.770Z,99844.47
2023-05-22T16:46:16.908Z,99845.47
2023-05-22T16:49:19.411Z,99853.88
2023-05-22T16:52:23.648Z,99851.00
2023-05-22T16:55:26.084Z,99857.25
2023-05-22T16:58:29.210Z,99857.25
2023-05-22T17:01:32.732Z,99864.63
2023-05-22T17:04:35.512Z,99853.22
2023-05-22T17:07:38.209Z,99868.12
2023-05-22T17:10:41.728Z,99857.47
2023-05-22T17:13:44.243Z,99860.72
2023-05-22T17:16:47.760Z,99854.44
2023-05-22T17:19:50.301Z,99858.28
2023-05-22T17:22:53.108Z,99865.66
2023-05-22T17:25:55.628Z,99860.75
2023-05-22T17:28:58.377Z,99870.59
2023-05-22T17:32:01.300Z,99861.50
2023-05-22T17:35:06.483Z,99864.09
2023-05-22T17:38:09.302Z,99852.19
2023-05-22T17:41:12.097Z,99860.16
2023-05-22T17:44:14.564Z,99864.44
2023-05-22T17:47:18.353Z,99860.47
2023-05-22T17:50:21.154Z,99862.44
2023-05-22T17:53:23.915Z,99862.88
2023-05-22T17:56:26.717Z,99856.56
2023-05-22T17:59:30.665Z,99859.00
2023-05-22T18:02:33.377Z,99840.72
2023-05-22T18:05:36.283Z,99847.47
2023-05-22T18:08:40.029Z,99850.44
2023-05-22T18:11:42.787Z,99846.16
2023-05-22T18:14:46.080Z,99846.59
2023-05-22T18:17:48.857Z,99842.84
2023-05-22T18:20:51.339Z,99851.19
2023-05-22T18:23:55.242Z,99846.69
2023-05-22T18:26:57.747Z,99852.12
2023-05-22T18:30:00.553Z,99854.34
2023-05-22T18:33:03.853Z,99856.25
2023-05-22T18:36:06.766Z,99858.00
2023-05-22T18:39:09.387Z,99859.91
2023-05-22T18:42:12.127Z,99852.38
2023-05-22T18:45:14.722Z,99855.94
2023-05-22T18:48:17.500Z,99859.75
2023-05-22T18:51:20.136Z,99863.37
2023-05-22T18:54:22.866Z,99875.81
2023-05-22T18:57:25.451Z,99872.28
2023-05-22T19:00:28.362Z,99878.13
2023-05-22T19:03:31.236Z,99886.13
2023-05-22T19:06:34.354Z,99885.13
2023-05-22T19:09:37.206Z,99891.63
2023-05-22T19:12:40.007Z,99890.38
2023-05-22T19:15:42.551Z,99888.19
2023-05-22T19:18:45.458Z,99888.31
2023-05-22T19:21:48.029Z,99889.28
2023-05-22T19:24:51.231Z,99879.78
2023-05-22T19:27:53.826Z,99887.00
2023-05-22T19:30:58.628Z,99878.28
2023-05-22T19:34:01.704Z,99886.09
2023-05-22T19:37:04.594Z,99887.44
2023-05-22T19:40:12.524Z,99892.63
2023-05-22T19:43:15.413Z,99886.37
2023-05-22T19:46:17.977Z,99885.72
2023-05-22T19:49:20.816Z,99889.06
2023-05-22T19:55:26.898Z,99882.25
2023-05-22T19:58:29.433Z,99888.91
2023-05-22T20:01:32.322Z,99885.66
2023-05-22T20:04:35.989Z,99888.56
2023-05-22T20:07:42.126Z,99886.97
2023-05-22T20:10:47.995Z,99883.66
2023-05-22T20:13:54.472Z,99886.28
2023-05-22T20:16:59.009Z,99883.00
2023-05-22T20:20:01.605Z,99894.16
2023-05-22T20:23:04.553Z,99883.56
2023-05-22T20:26:07.032Z,99891.19
2023-05-22T20:29:09.807Z,99891.66
2023-05-22T20:32:12.567Z,99892.03
2023-05-22T20:35:18.807Z,99901.06
2023-05-22T20:38:22.545Z,99898.00
2023-05-22T20:41:25.423Z,99895.81
2023-05-22T20:44:28.621Z,99905.53
2023-05-22T20:47:31.764Z,99909.81
2023-05-22T20:50:36.986Z,99908.06
2023-05-22T20:53:42.155Z,99908.50
2023-05-22T20:56:44.772Z,99902.47
2023-05-22T20:59:47.610Z,99903.13
2023-05-22T21:02:50.576Z,99912.19
2023-05-22T21:05:53.806Z,99902.63
2023-05-22T21:08:59.776Z,99898.34
2023-05-22T21:12:03.951Z,99908.34
2023-05-22T21:15:07.198Z,99905.84
2023-05-22T21:18:10.069Z,99906.22
2023-05-22T21:21:14.629Z,99904.69
2023-05-22T21:24:17.440Z,99902.03
2023-05-22T21:27:19.917Z,99896.00
2023-05-22T21:30:22.774Z,99903.75
2023-05-22T21:33:25.369Z,99909.69
2023-05-22T21:36:29.753Z,99919.81
2023-05-22T21:39:32.537Z,99930.19
2023-05-22T21:42:45.764Z,99922.28
2023-05-22T21:45:49.055Z,99924.34
2023-05-22T21:48:51.839Z,99926.25
2023-05-22T21:51:54.612Z,99923.94
2023-05-22T21:54:58.045Z,99914.81
2023-05-22T21:58:02.426Z,99912.38
2023-05-22T22:01:05.132Z,99901.78
2023-05-22T22:04:08.030Z,99904.28
2023-05-22T22:07:11.773Z,99904.44
2023-05-22T22:10:14.484Z,99897.44
2023-05-22T22:13:17.048Z,99908.50
2023-05-22T22:16:22.125Z,99907.00
2023-05-22T22:19:24.881Z,99904.63
2023-05-22T22:22:28.201Z,99911.34
2023-05-22T22:25:30.724Z,99907.00
2023-05-22T22:28:34.074Z,99910.72
2023-05-22T22:31:37.086Z,99920.78
2023-05-22T22:34:39.875Z,99921.06
2023-05-22T22:37:42.860Z,99918.56
2023-05-22T22:40:45.665Z,99926.53
2023-05-22T22:43:48.208Z,99928.41
2023-05-22T22:46:51.725Z,99927.53
2023-05-22T22:49:57.240Z,99927.78
2023-05-22T22:53:00.049Z,99923.03
2023-05-22T22:56:02.806Z,99928.72
2023-05-22T22:59:06.190Z,99925.44
2023-05-22T23:02:08.887Z,99930.19
2023-05-22T23:05:12.139Z,99927.00
2023-05-22T23:08:14.832Z,99933.25
2023-05-22T23:11:17.753Z,99929.16
2023-05-22T23:14:20.460Z,99935.47
2023-05-22T23:17:23.237Z,99933.78
2023-05-22T23:20:25.808Z,99932.81
2023-05-22T23:23:28.624Z,99925.84
2023-05-22T23:26:31.805Z,99922.19
2023-05-22T23:29:34.577Z,99914.72
2023-05-22T23:32:37.099Z,99918.53
2023-05-22T23:35:40.046Z,99911.16
2023-05-22T23:38:42.803Z,99911.81
2023-05-22T23:41:45.586Z,99909.56
2023-05-22T23:44:48.116Z,99907.50
2023-05-22T23:47:50.933Z,99900.03
2023-05-22T23:50:53.460Z,99898.22
2023-05-22T23:53:56.219Z,99892.47
2023-05-22T23:56:58.754Z,99889.69
